^^
Station Historical Data
Daily Summary for February 13, 2018 Units:  English    Metric   Both
« Previous Day
Next Day »
Daily Weekly Monthly Yearly Custom
  High: Low: Average:
Temperature: TemperatureF °F 26.9 °F 36.9 °F
Dew Point: DewpointF °F 18.0 °F 23.8 °F
Humidity: Humidity% 41% 60%
Wind Speed: WindSpeedMPHmph 1.2mph 6.5mph
Wind Gust: WindSpeedGustMPHmph - -
Wind- - SSE
Pressure: PressureIn in 30.20 in -
Precipitation: 0.00 in    
Historical Graphs
 
 
Tabular Data for February 13, 2018
Time Temperature Dew Point Pressure Wind Wind Speed Wind Gust Humidity Rainfall Rate (Hourly)
TemperatureF °F DewpointF °F PressureIn in Calm     Humidity% HourlyPrecipIn in
00:04 28.0 °F 18.5 °F 30.54 in ENE 9.2 mph 9.2 mph 67% 0.00 in
00:10 28.1 °F 18.5 °F 30.54 in East 11.5 mph 11.5 mph 67% 0.00 in
00:15 28.1 °F 18.2 °F 30.54 in SE 8.1 mph 8.1 mph 66% 0.00 in
00:20 28.1 °F 18.2 °F 30.55 in ENE 8.1 mph 8.1 mph 66% 0.00 in
00:25 28.2 °F 18.3 °F 30.54 in ESE 5.8 mph 5.8 mph 66% 0.00 in
00:30 28.2 °F 18.3 °F 30.54 in East 6.0 mph 6.0 mph 66% 0.00 in
00:36 28.2 °F 18.3 °F 30.54 in East 4.6 mph 4.6 mph 66% 0.00 in
00:41 28.2 °F 18.3 °F 30.54 in East 8.0 mph 8.0 mph 66% 0.00 in
00:47 28.2 °F 18.3 °F 30.54 in SE 7.0 mph 7.0 mph 66% 0.00 in
00:52 28.2 °F 18.3 °F 30.54 in SE 4.0 mph 4.0 mph 66% 0.00 in
00:57 28.1 °F 18.2 °F 30.54 in East 4.0 mph 4.0 mph 66% 0.00 in
01:02 28.1 °F 18.2 °F 30.53 in ESE 10.4 mph 10.4 mph 66% 0.00 in
01:07 28.0 °F 18.1 °F 30.53 in SE 8.1 mph 8.1 mph 66% 0.00 in
01:12 28.1 °F 18.2 °F 30.52 in East 4.6 mph 4.6 mph 66% 0.00 in
01:17 28.1 °F 18.2 °F 30.52 in ENE 10.4 mph 10.4 mph 66% 0.00 in
01:23 28.2 °F 18.3 °F 30.52 in SSE 9.2 mph 9.2 mph 66% 0.00 in
01:28 28.3 °F 18.0 °F 30.51 in SE 9.2 mph 9.2 mph 65% 0.00 in
01:33 28.3 °F 18.0 °F 30.52 in SE 4.6 mph 5.6 mph 65% 0.00 in
01:38 28.3 °F 18.4 °F 30.52 in ESE 4.6 mph 4.6 mph 66% 0.00 in
01:43 28.3 °F 18.4 °F 30.52 in East 9.2 mph 9.2 mph 66% 0.00 in
01:48 28.3 °F 18.4 °F 30.51 in East 9.2 mph 9.2 mph 66% 0.00 in
01:54 28.1 °F 18.2 °F 30.52 in East 11.0 mph 11.0 mph 66% 0.00 in
01:59 28.0 °F 18.5 °F 30.52 in East 8.1 mph 8.1 mph 67% 0.00 in
02:04 27.9 °F 18.4 °F 30.51 in SE 5.8 mph 5.8 mph 67% 0.00 in
02:09 27.9 °F 18.4 °F 30.52 in East 5.8 mph 5.8 mph 67% 0.00 in
02:14 27.8 °F 18.6 °F 30.52 in East 4.6 mph 4.6 mph 68% 0.00 in
02:19 27.8 °F 18.6 °F 30.52 in ESE 3.5 mph 3.5 mph 68% 0.00 in
02:24 27.8 °F 18.6 °F 30.52 in ENE 3.5 mph 3.5 mph 68% 0.00 in
02:30 27.8 °F 18.6 °F 30.52 in East 3.5 mph 3.5 mph 68% 0.00 in
02:35 27.8 °F 18.6 °F 30.52 in East 6.9 mph 6.9 mph 68% 0.00 in
02:40 27.8 °F 18.6 °F 30.52 in SE 3.5 mph 3.5 mph 68% 0.00 in
02:45 27.8 °F 18.6 °F 30.53 in East 5.8 mph 5.8 mph 68% 0.00 in
02:50 27.9 °F 18.7 °F 30.53 in ESE 2.3 mph 2.3 mph 68% 0.00 in
02:55 27.9 °F 18.7 °F 30.53 in SE 6.9 mph 6.9 mph 68% 0.00 in
03:00 28.0 °F 18.8 °F 30.53 in East 3.5 mph 3.5 mph 68% 0.00 in
03:05 28.1 °F 18.9 °F 30.53 in East 1.2 mph 1.2 mph 68% 0.00 in
03:11 28.1 °F 18.9 °F 30.52 in ESE 9.2 mph 9.2 mph 68% 0.00 in
03:16 28.0 °F 18.8 °F 30.52 in SE 6.9 mph 6.9 mph 68% 0.00 in
03:21 28.0 °F 18.8 °F 30.52 in East 4.6 mph 4.6 mph 68% 0.00 in
03:26 27.9 °F 18.7 °F 30.51 in ESE 3.5 mph 3.5 mph 68% 0.00 in
03:31 27.8 °F 18.9 °F 30.51 in ESE 3.5 mph 3.5 mph 69% 0.00 in
03:36 27.6 °F 18.8 °F 30.51 in SE 3.5 mph 3.5 mph 69% 0.00 in
03:41 27.5 °F 19.0 °F 30.51 in SE 5.8 mph 5.8 mph 70% 0.00 in
03:46 27.4 °F 18.9 °F 30.51 in ESE 6.9 mph 6.9 mph 70% 0.00 in
03:51 27.3 °F 18.8 °F 30.51 in ESE 7.0 mph 7.0 mph 70% 0.00 in
03:57 27.2 °F 19.0 °F 30.51 in ESE 4.6 mph 4.6 mph 71% 0.00 in
04:02 27.2 °F 19.0 °F 30.51 in SE 3.5 mph 3.5 mph 71% 0.00 in
04:07 27.2 °F 19.0 °F 30.51 in East 3.5 mph 3.5 mph 71% 0.00 in
04:12 27.2 °F 19.0 °F 30.51 in ESE 6.9 mph 6.9 mph 71% 0.00 in
04:17 27.2 °F 19.0 °F 30.51 in ENE 3.5 mph 3.5 mph 71% 0.00 in
04:22 27.2 °F 19.0 °F 30.50 in ESE 8.1 mph 8.1 mph 71% 0.00 in
04:27 27.2 °F 19.0 °F 30.50 in ESE 4.6 mph 4.6 mph 71% 0.00 in
04:32 27.2 °F 19.0 °F 30.51 in ESE 3.5 mph 3.5 mph 71% 0.00 in
04:37 27.3 °F 19.1 °F 30.50 in East 5.8 mph 5.8 mph 71% 0.00 in
04:42 27.2 °F 19.0 °F 30.50 in East 9.2 mph 9.2 mph 71% 0.00 in
04:48 27.2 °F 19.0 °F 30.50 in SE 8.1 mph 8.1 mph 71% 0.00 in
04:53 27.1 °F 18.9 °F 30.50 in SE 3.5 mph 3.5 mph 71% 0.00 in
04:58 27.1 °F 18.9 °F 30.50 in East 3.5 mph 4.0 mph 71% 0.00 in
05:03 27.1 °F 19.3 °F 30.50 in East 5.8 mph 5.8 mph 72% 0.00 in
05:08 27.1 °F 19.3 °F 30.50 in East 3.5 mph 3.5 mph 72% 0.00 in
05:14 27.0 °F 19.2 °F 30.50 in East 3.5 mph 3.5 mph 72% 0.00 in
05:19 27.0 °F 19.2 °F 30.50 in East 2.3 mph 2.3 mph 72% 0.00 in
05:24 27.0 °F 19.2 °F 30.50 in ENE 6.9 mph 6.9 mph 72% 0.00 in
05:29 27.0 °F 19.2 °F 30.50 in East 3.5 mph 3.5 mph 72% 0.00 in
05:34 27.0 °F 19.2 °F 30.49 in ESE 5.8 mph 5.8 mph 72% 0.00 in
05:39 27.0 °F 19.2 °F 30.49 in East 3.5 mph 3.5 mph 72% 0.00 in
05:44 27.1 °F 19.3 °F 30.49 in ESE 3.5 mph 3.5 mph 72% 0.00 in
05:49 27.1 °F 19.3 °F 30.49 in East 4.6 mph 4.6 mph 72% 0.00 in
05:54 27.1 °F 19.6 °F 30.49 in SE 4.6 mph 4.6 mph 73% 0.00 in
05:59 27.1 °F 19.3 °F 30.49 in East 5.8 mph 5.8 mph 72% 0.00 in
06:04 27.1 °F 19.6 °F 30.49 in ENE 4.6 mph 4.6 mph 73% 0.00 in
06:09 27.1 °F 19.6 °F 30.48 in East 2.3 mph 2.5 mph 73% 0.00 in
06:14 27.1 °F 19.6 °F 30.48 in ENE 5.8 mph 5.8 mph 73% 0.00 in
06:20 27.1 °F 19.6 °F 30.48 in ESE 3.5 mph 3.5 mph 73% 0.00 in
06:24 27.1 °F 19.3 °F 30.48 in ESE 3.5 mph 3.5 mph 72% 0.00 in
06:29 27.2 °F 19.7 °F 30.47 in ESE 8.1 mph 8.1 mph 73% 0.00 in
06:35 27.2 °F 19.7 °F 30.48 in East 4.0 mph 4.0 mph 73% 0.00 in
06:40 27.3 °F 19.5 °F 30.47 in East 3.5 mph 3.5 mph 72% 0.00 in
06:45 27.3 °F 19.5 °F 30.47 in SE 3.5 mph 5.3 mph 72% 0.00 in
06:50 27.2 °F 19.7 °F 30.47 in SE 8.1 mph 8.1 mph 73% 0.00 in
06:55 27.2 °F 19.4 °F 30.47 in SSE 8.1 mph 8.1 mph 72% 0.00 in
07:00 27.2 °F 19.7 °F 30.47 in East 3.5 mph 3.5 mph 73% 0.00 in
07:05 27.1 °F 19.6 °F 30.47 in East 7.0 mph 7.0 mph 73% 0.00 in
07:11 27.0 °F 19.5 °F 30.47 in SE 5.8 mph 5.8 mph 73% 0.00 in
07:16 26.9 °F 19.4 °F 30.47 in ESE 11.5 mph 11.5 mph 73% 0.00 in
07:21 26.9 °F 19.4 °F 30.47 in SE 3.5 mph 4.9 mph 73% 0.00 in
07:26 26.9 °F 19.7 °F 30.46 in ESE 6.9 mph 6.9 mph 74% 0.00 in
07:31 26.9 °F 19.7 °F 30.46 in SE 4.6 mph 4.6 mph 74% 0.00 in
07:37 26.9 °F 19.7 °F 30.47 in ESE 6.9 mph 6.9 mph 74% 0.00 in
07:42 27.0 °F 19.8 °F 30.46 in ESE 5.8 mph 5.8 mph 74% 0.00 in
07:47 27.3 °F 19.8 °F 30.46 in ESE 3.5 mph 3.5 mph 73% 0.00 in
07:52 27.5 °F 20.0 °F 30.47 in SSW 11.5 mph 11.5 mph 73% 0.00 in
07:57 27.6 °F 20.1 °F 30.47 in SE 8.1 mph 8.1 mph 73% 0.00 in
08:02 27.6 °F 20.1 °F 30.47 in SE 3.5 mph 3.5 mph 73% 0.00 in
08:08 27.8 °F 20.3 °F 30.48 in South 5.8 mph 5.8 mph 73% 0.00 in
08:13 27.9 °F 20.4 °F 30.48 in SE 7.0 mph 7.0 mph 73% 0.00 in
08:18 28.0 °F 20.1 °F 30.48 in SE 8.1 mph 8.1 mph 72% 0.00 in
08:23 28.1 °F 20.2 °F 30.48 in SE 9.2 mph 9.2 mph 72% 0.00 in
08:28 28.4 °F 20.5 °F 30.48 in ESE 12.7 mph 12.7 mph 72% 0.00 in
08:33 28.7 °F 20.5 °F 30.47 in SE 8.1 mph 8.1 mph 71% 0.00 in
08:38 28.9 °F 20.7 °F 30.47 in SE 6.9 mph 6.9 mph 71% 0.00 in
08:43 29.1 °F 20.5 °F 30.47 in SE 9.2 mph 9.2 mph 70% 0.00 in
08:48 29.4 °F 20.8 °F 30.47 in ESE 5.8 mph 5.8 mph 70% 0.00 in
08:53 29.9 °F 21.0 °F 30.46 in SE 5.8 mph 5.8 mph 69% 0.00 in
08:59 30.4 °F 21.1 °F 30.45 in East 10.4 mph 10.4 mph 68% 0.00 in
09:04 30.7 °F 21.0 °F 30.46 in SE 8.1 mph 8.1 mph 67% 0.00 in
09:09 30.8 °F 20.8 °F 30.46 in SSE 9.2 mph 9.2 mph 66% 0.00 in
09:14 31.2 °F 21.2 °F 30.46 in SE 9.2 mph 9.2 mph 66% 0.00 in
09:19 31.6 °F 21.2 °F 30.46 in SSE 4.6 mph 4.6 mph 65% 0.00 in
09:24 32.3 °F 21.8 °F 30.46 in SSE 4.6 mph 4.6 mph 65% 0.00 in
09:30 33.1 °F 21.9 °F 30.46 in SSW 6.0 mph 6.0 mph 63% 0.00 in
09:36 33.5 °F 21.9 °F 30.46 in SSE 3.5 mph 3.5 mph 62% 0.00 in
09:41 33.9 °F 21.9 °F 30.45 in SE 10.0 mph 10.0 mph 61% 0.00 in
09:46 34.2 °F 21.7 °F 30.45 in SE 10.4 mph 10.4 mph 60% 0.00 in
09:51 34.8 °F 22.3 °F 30.45 in SE 7.0 mph 7.0 mph 60% 0.00 in
09:56 35.3 °F 21.6 °F 30.44 in SE 10.4 mph 10.4 mph 57% 0.00 in
10:02 35.7 °F 21.9 °F 30.44 in SSW 4.6 mph 4.6 mph 57% 0.00 in
10:07 36.3 °F 22.1 °F 30.44 in ESE 5.8 mph 5.8 mph 56% 0.00 in
10:12 37.0 °F 21.9 °F 30.44 in South 8.1 mph 8.1 mph 54% 0.00 in
10:17 37.4 °F 21.8 °F 30.44 in South 8.1 mph 8.1 mph 53% 0.00 in
10:23 37.3 °F 21.3 °F 30.43 in South 9.2 mph 9.2 mph 52% 0.00 in
10:28 37.5 °F 21.5 °F 30.43 in South 11.5 mph 11.5 mph 52% 0.00 in
10:34 38.2 °F 22.1 °F 30.43 in SSW 4.6 mph 4.6 mph 52% 0.00 in
10:39 38.2 °F 21.6 °F 30.42 in SW 6.0 mph 6.0 mph 51% 0.00 in
10:44 38.6 °F 21.5 °F 30.43 in SSW 5.8 mph 5.8 mph 50% 0.00 in
10:47 38.9 °F 22.3 °F 30.42 in South 8.1 mph 8.1 mph 51% 0.00 in
10:52 39.4 °F 22.3 °F 30.42 in SSE 5.8 mph 5.8 mph 50% 0.00 in
10:57 39.9 °F 22.3 °F 30.42 in SSW 9.2 mph 9.2 mph 49% 0.00 in
11:02 40.3 °F 22.1 °F 30.42 in SSW 4.6 mph 4.6 mph 48% 0.00 in
11:07 40.9 °F 21.7 °F 30.42 in SSW 12.7 mph 12.7 mph 46% 0.00 in
11:12 40.9 °F 22.2 °F 30.42 in South 11.5 mph 11.5 mph 47% 0.00 in
11:17 41.2 °F 21.4 °F 30.42 in SW 11.5 mph 11.5 mph 45% 0.00 in
11:22 41.4 °F 22.1 °F 30.41 in South 6.9 mph 6.9 mph 46% 0.00 in
11:28 42.3 °F 22.4 °F 30.41 in South 9.2 mph 9.2 mph 45% 0.00 in
11:33 42.5 °F 22.1 °F 30.41 in SSE 11.5 mph 11.5 mph 44% 0.00 in
11:38 42.7 °F 22.3 °F 30.41 in SSW 11.5 mph 11.5 mph 44% 0.00 in
11:43 43.2 °F 22.7 °F 30.40 in SSE 8.1 mph 8.1 mph 44% 0.00 in
11:49 43.2 °F 22.2 °F 30.40 in South 9.2 mph 9.2 mph 43% 0.00 in
11:54 43.6 °F 23.1 °F 30.40 in South 9.2 mph 9.2 mph 44% 0.00 in
11:59 43.6 °F 22.5 °F 30.40 in SW 6.9 mph 6.9 mph 43% 0.00 in
12:04 44.3 °F 23.7 °F 30.39 in South 8.1 mph 8.1 mph 44% 0.00 in
12:09 44.3 °F 23.7 °F 30.39 in SSW 5.0 mph 5.0 mph 44% 0.00 in
12:14 44.7 °F 23.5 °F 30.37 in SSE 10.4 mph 10.4 mph 43% 0.00 in
12:19 44.8 °F 23.1 °F 30.37 in SSE 11.5 mph 11.5 mph 42% 0.00 in
12:24 44.8 °F 23.1 °F 30.37 in SSE 8.1 mph 8.1 mph 42% 0.00 in
12:29 44.7 °F 23.5 °F 30.37 in SW 6.9 mph 6.9 mph 43% 0.00 in
12:34 44.9 °F 23.7 °F 30.37 in South 8.1 mph 8.1 mph 43% 0.00 in
12:39 44.4 °F 23.3 °F 30.36 in SW 10.4 mph 10.5 mph 43% 0.00 in
12:44 44.7 °F 23.5 °F 30.36 in SSE 5.8 mph 5.8 mph 43% 0.00 in
12:49 45.4 °F 23.6 °F 30.36 in South 11.5 mph 11.5 mph 42% 0.00 in
12:55 45.6 °F 23.8 °F 30.35 in SSW 12.7 mph 12.7 mph 42% 0.00 in
13:00 45.5 °F 23.7 °F 30.35 in SSW 12.7 mph 12.7 mph 42% 0.00 in
13:06 45.7 °F 23.9 °F 30.34 in SSW 13.8 mph 13.8 mph 42% 0.00 in
13:11 45.8 °F 23.4 °F 30.34 in South 13.0 mph 13.0 mph 41% 0.00 in
13:16 45.9 °F 24.1 °F 30.33 in South 8.1 mph 8.1 mph 42% 0.00 in
13:21 46.0 °F 23.6 °F 30.33 in SSE 9.2 mph 9.2 mph 41% 0.00 in
13:26 46.5 °F 24.0 °F 30.33 in SSW 7.0 mph 7.6 mph 41% 0.00 in
13:31 46.1 °F 23.7 °F 30.33 in South 16.1 mph 16.1 mph 41% 0.00 in
13:36 46.3 °F 24.4 °F 30.32 in South 12.0 mph 12.0 mph 42% 0.00 in
13:41 46.4 °F 24.5 °F 30.31 in South 8.1 mph 8.1 mph 42% 0.00 in
13:46 47.0 °F 24.5 °F 30.31 in SE 10.4 mph 10.4 mph 41% 0.00 in
13:52 47.2 °F 24.7 °F 30.31 in South 10.4 mph 10.4 mph 41% 0.00 in
13:57 47.0 °F 24.5 °F 30.31 in SSW 13.0 mph 13.0 mph 41% 0.00 in
14:02 47.1 °F 24.6 °F 30.30 in SW 5.8 mph 5.8 mph 41% 0.00 in
14:07 47.4 °F 24.9 °F 30.30 in SSE 5.8 mph 5.8 mph 41% 0.00 in
14:12 47.1 °F 24.6 °F 30.30 in SSW 11.5 mph 11.5 mph 41% 0.00 in
14:17 46.3 °F 24.4 °F 30.30 in ESE 6.9 mph 6.9 mph 42% 0.00 in
14:22 46.1 °F 24.3 °F 30.29 in SSW 5.8 mph 5.8 mph 42% 0.00 in
14:27 46.4 °F 25.1 °F 30.29 in SE 10.4 mph 10.4 mph 43% 0.00 in
14:33 46.2 °F 24.3 °F 30.28 in SSW 11.5 mph 11.5 mph 42% 0.00 in
14:38 46.7 °F 25.4 °F 30.28 in SSW 5.0 mph 5.0 mph 43% 0.00 in
14:43 46.5 °F 25.2 °F 30.28 in SW 10.4 mph 10.4 mph 43% 0.00 in
14:48 46.8 °F 25.5 °F 30.28 in South 3.5 mph 3.5 mph 43% 0.00 in
14:53 47.0 °F 26.2 °F 30.28 in SW 6.0 mph 6.0 mph 44% 0.00 in
14:58 46.9 °F 26.1 °F 30.28 in SSE 11.5 mph 11.5 mph 44% 0.00 in
15:04 46.7 °F 26.5 °F 30.27 in South 12.7 mph 12.7 mph 45% 0.00 in
15:09 47.1 °F 26.3 °F 30.27 in South 7.0 mph 7.0 mph 44% 0.00 in
15:14 47.0 °F 26.2 °F 30.27 in SSW 15.0 mph 15.0 mph 44% 0.00 in
15:19 46.7 °F 27.0 °F 30.27 in SSE 6.9 mph 6.9 mph 46% 0.00 in
15:25 46.8 °F 26.6 °F 30.27 in SW 11.5 mph 11.5 mph 45% 0.00 in
15:30 47.0 °F 27.3 °F 30.27 in SSW 5.8 mph 5.8 mph 46% 0.00 in
15:35 47.2 °F 28.0 °F 30.27 in SW 5.0 mph 5.0 mph 47% 0.00 in
15:40 47.1 °F 27.4 °F 30.27 in SW 9.2 mph 9.2 mph 46% 0.00 in
15:45 46.9 °F 27.2 °F 30.26 in SSW 9.2 mph 9.2 mph 46% 0.00 in
15:50 47.2 °F 27.5 °F 30.27 in South 6.9 mph 6.9 mph 46% 0.00 in
15:55 47.0 °F 27.3 °F 30.27 in SW 8.1 mph 8.1 mph 46% 0.00 in
16:00 46.9 °F 27.7 °F 30.26 in South 12.7 mph 12.7 mph 47% 0.00 in
16:05 46.7 °F 27.5 °F 30.26 in SSE 13.8 mph 13.8 mph 47% 0.00 in
16:10 46.7 °F 28.0 °F 30.27 in SSW 13.8 mph 13.8 mph 48% 0.00 in
16:15 46.9 °F 28.2 °F 30.26 in South 8.1 mph 8.1 mph 48% 0.00 in
16:21 47.4 °F 28.2 °F 30.26 in SSE 3.0 mph 3.0 mph 47% 0.00 in
16:26 47.1 °F 27.9 °F 30.26 in SSW 12.7 mph 12.7 mph 47% 0.00 in
16:31 47.0 °F 27.8 °F 30.26 in South 5.8 mph 7.9 mph 47% 0.00 in
16:36 47.0 °F 27.8 °F 30.26 in South 5.8 mph 7.9 mph 47% 0.00 in
16:41 46.5 °F 27.8 °F 30.25 in SSW 8.1 mph 8.1 mph 48% 0.00 in
16:46 46.5 °F 27.8 °F 30.25 in South 11.5 mph 11.5 mph 48% 0.00 in
16:51 46.7 °F 28.0 °F 30.25 in SW 6.9 mph 6.9 mph 48% 0.00 in
16:56 46.9 °F 28.2 °F 30.25 in SSW 11.5 mph 11.5 mph 48% 0.00 in
17:01 46.9 °F 28.2 °F 30.24 in South 6.9 mph 6.9 mph 48% 0.00 in
17:06 46.7 °F 28.0 °F 30.24 in SSW 15.0 mph 15.0 mph 48% 0.00 in
17:11 46.5 °F 28.3 °F 30.24 in SW 6.0 mph 6.0 mph 49% 0.00 in
17:17 46.5 °F 28.3 °F 30.23 in South 8.0 mph 8.0 mph 49% 0.00 in
17:22 46.3 °F 28.7 °F 30.23 in SSE 12.7 mph 12.7 mph 50% 0.00 in
17:27 46.2 °F 28.6 °F 30.23 in SSW 8.1 mph 8.1 mph 50% 0.00 in
17:32 46.1 °F 28.5 °F 30.22 in SSE 5.8 mph 5.8 mph 50% 0.00 in
17:37 45.9 °F 28.8 °F 30.22 in South 4.6 mph 4.6 mph 51% 0.00 in
17:42 45.7 °F 28.6 °F 30.22 in South 6.9 mph 6.9 mph 51% 0.00 in
17:47 45.5 °F 28.9 °F 30.22 in SSE 5.8 mph 5.8 mph 52% 0.00 in
17:52 45.3 °F 28.7 °F 30.21 in SE 3.5 mph 3.5 mph 52% 0.00 in
17:57 45.2 °F 29.1 °F 30.21 in South 11.5 mph 11.5 mph 53% 0.00 in
18:02 45.0 °F 28.9 °F 30.22 in South 5.8 mph 5.8 mph 53% 0.00 in
18:07 44.9 °F 28.8 °F 30.23 in South 6.9 mph 6.9 mph 53% 0.00 in
18:13 44.9 °F 29.2 °F 30.23 in South 7.0 mph 7.0 mph 54% 0.00 in
18:18 44.8 °F 29.2 °F 30.23 in South 4.6 mph 4.6 mph 54% 0.00 in
18:23 44.6 °F 29.0 °F 30.23 in SSE 6.9 mph 6.9 mph 54% 0.00 in
18:28 44.7 °F 29.1 °F 30.24 in SSW 5.8 mph 5.8 mph 54% 0.00 in
18:33 44.6 °F 29.4 °F 30.24 in SSE 8.1 mph 8.1 mph 55% 0.00 in
18:38 44.6 °F 29.4 °F 30.24 in SW 3.5 mph 3.7 mph 55% 0.00 in
18:43 44.6 °F 29.4 °F 30.23 in South 11.5 mph 11.5 mph 55% 0.00 in
18:48 44.5 °F 29.3 °F 30.23 in South 11.5 mph 11.5 mph 55% 0.00 in
18:54 44.3 °F 29.6 °F 30.23 in South 4.6 mph 4.6 mph 56% 0.00 in
18:59 44.1 °F 29.4 °F 30.23 in South 3.5 mph 3.5 mph 56% 0.00 in
19:05 43.8 °F 29.5 °F 30.23 in South 5.8 mph 5.8 mph 57% 0.00 in
19:10 43.6 °F 29.4 °F 30.23 in South 4.6 mph 4.6 mph 57% 0.00 in
19:15 43.4 °F 29.6 °F 30.23 in South 5.8 mph 5.8 mph 58% 0.00 in
19:20 43.2 °F 29.4 °F 30.23 in SSE 3.5 mph 3.5 mph 58% 0.00 in
19:26 42.9 °F 29.1 °F 30.23 in South 3.5 mph 3.5 mph 58% 0.00 in
19:31 42.7 °F 29.4 °F 30.23 in South 9.2 mph 9.2 mph 59% 0.00 in
19:36 42.5 °F 29.2 °F 30.23 in South 4.0 mph 4.0 mph 59% 0.00 in
19:41 42.4 °F 29.5 °F 30.23 in South 4.6 mph 4.6 mph 60% 0.00 in
19:47 42.2 °F 29.3 °F 30.23 in South 2.3 mph 2.3 mph 60% 0.00 in
19:52 42.0 °F 29.1 °F 30.23 in South 3.5 mph 3.5 mph 60% 0.00 in
19:57 41.9 °F 29.4 °F 30.23 in South 3.5 mph 3.5 mph 61% 0.00 in
20:03 41.7 °F 29.2 °F 30.23 in South 2.0 mph 2.3 mph 61% 0.00 in
20:08 41.6 °F 29.5 °F 30.22 in South 3.5 mph 3.5 mph 62% 0.00 in
20:13 41.5 °F 29.4 °F 30.22 in South 4.6 mph 4.6 mph 62% 0.00 in
20:18 41.4 °F 29.3 °F 30.22 in South 3.5 mph 3.5 mph 62% 0.00 in
20:23 41.3 °F 29.6 °F 30.22 in South 2.3 mph 2.3 mph 63% 0.00 in
20:28 41.2 °F 29.5 °F 30.22 in South 2.3 mph 2.3 mph 63% 0.00 in
20:33 41.0 °F 29.4 °F 30.22 in South 3.5 mph 3.5 mph 63% 0.00 in
20:39 40.9 °F 29.7 °F 30.22 in South 2.3 mph 2.3 mph 64% 0.00 in
20:44 40.8 °F 29.6 °F 30.22 in South 4.0 mph 4.0 mph 64% 0.00 in
20:49 40.7 °F 29.5 °F 30.22 in South 3.5 mph 3.5 mph 64% 0.00 in
20:54 40.7 °F 29.5 °F 30.22 in South 4.6 mph 4.6 mph 64% 0.00 in
20:59 40.6 °F 29.7 °F 30.22 in South 3.5 mph 3.5 mph 65% 0.00 in
21:04 40.6 °F 29.7 °F 30.22 in South 4.6 mph 4.6 mph 65% 0.00 in
21:09 40.6 °F 29.7 °F 30.22 in South 3.5 mph 3.5 mph 65% 0.00 in
21:14 40.5 °F 29.7 °F 30.22 in South 2.3 mph 2.3 mph 65% 0.00 in
21:20 40.3 °F 29.8 °F 30.22 in South 1.2 mph 1.2 mph 66% 0.00 in
21:25 40.2 °F 29.7 °F 30.22 in South 1.2 mph 1.2 mph 66% 0.00 in
21:30 40.0 °F 29.6 °F 30.22 in South 2.3 mph 2.3 mph 66% 0.00 in
21:35 39.9 °F 29.8 °F 30.22 in South 1.2 mph 1.2 mph 67% 0.00 in
21:40 39.8 °F 29.7 °F 30.22 in South 2.3 mph 2.3 mph 67% 0.00 in
21:45 39.7 °F 29.6 °F 30.22 in South 3.5 mph 3.5 mph 67% 0.00 in
21:51 39.8 °F 30.1 °F 30.22 in South 2.3 mph 2.3 mph 68% 0.00 in
21:56 39.7 °F 29.6 °F 30.22 in South 1.2 mph 1.2 mph 67% 0.00 in
22:01 39.6 °F 29.9 °F 30.22 in South 1.2 mph 1.2 mph 68% 0.00 in
22:07 39.4 °F 29.7 °F 30.22 in South 3.0 mph 3.0 mph 68% 0.00 in
22:12 39.4 °F 30.1 °F 30.22 in South 2.3 mph 2.3 mph 69% 0.00 in
22:17 39.3 °F 30.0 °F 30.21 in South 2.3 mph 2.3 mph 69% 0.00 in
22:22 39.3 °F 30.0 °F 30.21 in South 3.5 mph 3.5 mph 69% 0.00 in
22:27 39.3 °F 30.0 °F 30.22 in SSE 4.6 mph 4.6 mph 69% 0.00 in
22:32 39.4 °F 30.4 °F 30.21 in SSW 5.8 mph 5.8 mph 70% 0.00 in
22:37 39.5 °F 30.5 °F 30.21 in SSW 3.5 mph 3.5 mph 70% 0.00 in
22:42 39.5 °F 30.5 °F 30.21 in SSE 4.0 mph 4.0 mph 70% 0.00 in
22:47 39.7 °F 30.7 °F 30.21 in SSE 3.5 mph 3.5 mph 70% 0.00 in
22:52 39.8 °F 30.8 °F 30.21 in South 3.5 mph 3.7 mph 70% 0.00 in
22:57 39.9 °F 30.9 °F 30.21 in South 4.6 mph 4.6 mph 70% 0.00 in
23:02 40.0 °F 31.0 °F 30.21 in South 5.8 mph 5.8 mph 70% 0.00 in
23:07 40.2 °F 30.8 °F 30.21 in SSE 3.5 mph 3.5 mph 69% 0.00 in
23:12 40.3 °F 30.9 °F 30.21 in South 4.6 mph 4.6 mph 69% 0.00 in
23:17 40.5 °F 31.5 °F 30.21 in SSW 3.5 mph 3.5 mph 70% 0.00 in
23:23 40.7 °F 31.3 °F 30.20 in South 4.6 mph 4.6 mph 69% 0.00 in
23:28 40.8 °F 31.4 °F 30.20 in South 3.5 mph 3.5 mph 69% 0.00 in
23:33 40.9 °F 31.5 °F 30.20 in South 3.5 mph 3.5 mph 69% 0.00 in
23:39 40.9 °F 31.5 °F 30.20 in South 3.5 mph 3.5 mph 69% 0.00 in
23:44 40.9 °F 31.5 °F 30.20 in South 3.5 mph 3.5 mph 69% 0.00 in
23:49 40.9 °F 31.5 °F 30.20 in South 3.5 mph 3.5 mph 69% 0.00 in
23:54 40.9 °F 31.5 °F 30.20 in South 3.5 mph 3.5 mph 69% 0.00 in
23:59 41.0 °F 31.6 °F 30.20 in SSW 3.5 mph 3.5 mph 69% 0.00 in
Live Lenexa Weather
Compliments of Weather Underground - 1.75 mb